createdAt,value
2018-04-14T00:01:57.262Z,1.77
2018-04-14T00:04:26.749Z,1.97
2018-04-14T00:06:56.240Z,1.90
2018-04-14T00:09:25.794Z,2.30
2018-04-14T00:11:55.286Z,2.30
2018-04-14T00:14:24.782Z,1.83
2018-04-14T00:16:54.286Z,1.87
2018-04-14T00:19:23.776Z,1.77
2018-04-14T00:21:53.282Z,1.93
2018-04-14T00:24:22.776Z,1.60
2018-04-14T00:26:52.278Z,1.73
2018-04-14T00:29:21.766Z,1.90
2018-04-14T00:31:51.267Z,1.60
2018-04-14T00:34:21.192Z,1.53
2018-04-14T00:36:50.689Z,1.67
2018-04-14T00:39:20.586Z,1.80
2018-04-14T00:41:50.083Z,1.70
2018-04-14T00:44:19.591Z,1.40
2018-04-14T00:46:49.087Z,1.60
2018-04-14T00:49:18.614Z,1.60
2018-04-14T00:51:48.508Z,1.53
2018-04-14T00:54:17.773Z,1.63
2018-04-14T00:56:47.097Z,1.60
2018-04-14T00:59:16.603Z,1.53
2018-04-14T01:01:46.106Z,1.20
2018-04-14T01:04:15.614Z,1.50
2018-04-14T01:06:45.094Z,1.30
2018-04-14T01:09:14.598Z,1.23
2018-04-14T01:11:44.082Z,1.20
2018-04-14T01:14:13.586Z,1.40
2018-04-14T01:16:42.840Z,1.40
2018-04-14T01:19:12.122Z,1.50
2018-04-14T01:21:41.611Z,1.63
2018-04-14T01:24:11.107Z,1.60
2018-04-14T01:26:40.593Z,1.60
2018-04-14T01:29:10.478Z,1.37
2018-04-14T01:31:39.972Z,1.43
2018-04-14T01:34:09.457Z,1.50
2018-04-14T01:36:38.945Z,1.37
2018-04-14T01:39:56.704Z,1.30
2018-04-14T01:42:25.963Z,1.20
2018-04-14T01:44:55.861Z,1.30
2018-04-14T01:47:25.749Z,1.40
2018-04-14T01:49:55.242Z,1.40
2018-04-14T01:52:24.798Z,1.50
2018-04-14T01:54:54.701Z,1.10
2018-04-14T01:57:24.180Z,1.40
2018-04-14T01:59:53.677Z,1.27
2018-04-14T02:02:23.168Z,1.30
2018-04-14T02:04:52.726Z,1.20
2018-04-14T02:07:22.253Z,1.33
2018-04-14T02:09:52.142Z,1.70
2018-04-14T02:12:21.638Z,1.50
2018-04-14T02:14:51.144Z,1.40
2018-04-14T02:17:20.640Z,1.50
2018-04-14T02:19:50.112Z,1.60
2018-04-14T02:22:19.627Z,1.27
2018-04-14T02:24:49.110Z,1.40
2018-04-14T02:27:18.601Z,1.30
2018-04-14T02:29:48.511Z,1.13
2018-04-14T02:32:18.389Z,1.70
2018-04-14T02:34:47.880Z,1.60
2018-04-14T02:37:17.580Z,1.70
2018-04-14T02:39:47.082Z,1.57
2018-04-14T02:42:16.344Z,1.50
2018-04-14T02:44:46.246Z,1.30
2018-04-14T02:47:16.175Z,1.60
2018-04-14T02:49:46.268Z,1.30
2018-04-14T02:52:15.748Z,1.40
2018-04-14T02:54:45.435Z,1.60
2018-04-14T02:57:14.922Z,1.40
2018-04-14T02:59:44.817Z,1.53
2018-04-14T03:02:14.312Z,1.20
2018-04-14T03:04:43.825Z,1.67
2018-04-14T03:07:13.328Z,1.30
2018-04-14T03:09:42.831Z,1.50
2018-04-14T03:12:12.320Z,1.43
2018-04-14T03:14:41.820Z,1.50
2018-04-14T03:17:11.310Z,1.50
2018-04-14T03:19:40.806Z,1.20
2018-04-14T03:22:10.298Z,1.60
2018-04-14T03:24:39.785Z,1.70
2018-04-14T03:27:09.692Z,1.70
2018-04-14T03:29:39.246Z,2.03
2018-04-14T03:32:08.738Z,1.50
2018-04-14T03:34:38.240Z,1.60
2018-04-14T03:37:07.739Z,2.03
2018-04-14T03:39:37.222Z,1.40
2018-04-14T03:42:07.128Z,1.50
2018-04-14T03:44:36.618Z,1.67
2018-04-14T03:47:06.306Z,1.53
2018-04-14T03:49:35.576Z,1.60
2018-04-14T03:52:05.081Z,6.10
2018-04-14T03:54:34.583Z,17.23
2018-04-14T03:57:04.078Z,5.27
2018-04-14T03:59:33.970Z,2.90
2018-04-14T04:02:03.467Z,1.73
2018-04-14T04:04:32.989Z,1.67
2018-04-14T04:07:02.688Z,1.37
2018-04-14T04:09:32.174Z,2.00
2018-04-14T04:12:01.671Z,2.00
2018-04-14T04:14:31.360Z,1.40
2018-04-14T04:17:00.846Z,2.03
2018-04-14T04:19:47.168Z,1.40
2018-04-14T04:22:33.406Z,1.40
2018-04-14T04:28:13.567Z,2.17
2018-04-14T04:30:43.591Z,2.20
2018-04-14T04:33:12.750Z,2.40
2018-04-14T04:35:42.237Z,2.37
2018-04-14T04:38:11.742Z,2.23
2018-04-14T04:40:41.241Z,2.20
2018-04-14T04:43:11.135Z,2.00
2018-04-14T04:45:40.610Z,1.97
2018-04-14T04:48:10.099Z,2.00
2018-04-14T04:50:39.597Z,2.10
2018-04-14T04:53:09.283Z,2.10
2018-04-14T04:55:39.215Z,2.10
2018-04-14T04:58:08.697Z,1.80
2018-04-14T05:00:38.592Z,2.10
2018-04-14T05:03:08.073Z,1.80
2018-04-14T05:05:37.575Z,1.83
2018-04-14T05:08:07.079Z,1.77
2018-04-14T05:10:36.568Z,1.70
2018-04-14T05:13:06.052Z,1.70
2018-04-14T05:15:36.499Z,2.00
2018-04-14T05:18:06.001Z,2.10
2018-04-14T05:20:35.483Z,2.40
2018-04-14T05:23:05.394Z,2.23
2018-04-14T05:25:35.287Z,1.77
2018-04-14T05:28:04.537Z,2.13
2018-04-14T05:30:34.277Z,2.00
2018-04-14T05:33:03.964Z,1.83
2018-04-14T05:35:33.721Z,2.00
2018-04-14T05:38:03.204Z,2.10
2018-04-14T05:40:33.419Z,2.43
2018-04-14T05:43:02.911Z,4.40
2018-04-14T05:45:32.400Z,3.30
2018-04-14T05:48:01.893Z,2.40
2018-04-14T05:50:31.388Z,2.17
2018-04-14T05:53:01.283Z,2.47
2018-04-14T05:55:30.796Z,2.60
2018-04-14T05:58:00.292Z,1.93
2018-04-14T06:00:29.803Z,2.00
2018-04-14T06:02:59.078Z,2.10
2018-04-14T06:05:28.567Z,1.90
2018-04-14T06:07:58.088Z,1.93
2018-04-14T06:10:27.576Z,1.60
2018-04-14T06:12:57.091Z,2.00
2018-04-14T06:15:26.597Z,1.50
2018-04-14T06:17:56.157Z,1.73
2018-04-14T06:20:26.069Z,2.03
2018-04-14T06:22:55.979Z,1.90
2018-04-14T06:25:25.654Z,1.77
2018-04-14T06:27:55.144Z,1.63
2018-04-14T06:30:36.116Z,1.93
2018-04-14T06:33:05.606Z,1.67
2018-04-14T06:35:35.110Z,1.90
2018-04-14T06:38:04.598Z,1.70
2018-04-14T06:40:34.111Z,1.90
2018-04-14T06:43:03.605Z,2.50
2018-04-14T06:45:33.494Z,2.20
2018-04-14T06:48:02.664Z,2.40
2018-04-14T06:50:32.161Z,1.93
2018-04-14T06:53:01.661Z,1.90
2018-04-14T06:55:31.163Z,2.10
2018-04-14T06:58:00.667Z,1.93
2018-04-14T07:00:30.165Z,1.93
2018-04-14T07:02:59.663Z,1.80
2018-04-14T07:05:29.171Z,1.90
2018-04-14T07:07:58.455Z,2.27
2018-04-14T07:10:28.347Z,2.17
2018-04-14T07:12:57.839Z,2.93
2018-04-14T07:15:27.371Z,2.87
2018-04-14T07:17:57.284Z,2.90
2018-04-14T07:20:27.193Z,2.77
2018-04-14T07:22:57.083Z,2.60
2018-04-14T07:25:26.561Z,3.20
2018-04-14T07:27:56.077Z,3.17
2018-04-14T07:30:25.581Z,4.23
2018-04-14T07:32:55.088Z,4.30
2018-04-14T07:35:24.590Z,4.30
2018-04-14T07:37:54.093Z,4.90
2018-04-14T07:40:23.673Z,4.30
2018-04-14T07:42:53.179Z,4.40
2018-04-14T07:45:22.841Z,5.53
2018-04-14T07:47:52.342Z,4.97
2018-04-14T07:50:21.840Z,5.30
2018-04-14T07:52:51.407Z,5.20
2018-04-14T07:55:20.927Z,5.10
2018-04-14T07:57:50.195Z,5.00
2018-04-14T08:00:20.087Z,5.87
2018-04-14T08:02:49.585Z,5.93
2018-04-14T08:05:19.086Z,6.03
2018-04-14T08:14:36.755Z,6.50
2018-04-14T08:17:06.461Z,5.80
2018-04-14T08:19:35.971Z,5.53
2018-04-14T08:22:05.500Z,5.80
2018-04-14T08:24:34.994Z,5.90
2018-04-14T08:27:04.534Z,5.30
2018-04-14T08:29:34.647Z,5.80
2018-04-14T08:32:04.564Z,5.47
2018-04-14T08:34:34.479Z,5.73
2018-04-14T08:37:04.391Z,5.73
2018-04-14T08:39:34.307Z,5.60
2018-04-14T08:42:04.220Z,5.90
2018-04-14T08:44:34.121Z,5.90
2018-04-14T08:47:03.606Z,5.70
2018-04-14T08:49:33.115Z,5.10
2018-04-14T08:52:02.619Z,5.23
2018-04-14T08:54:32.130Z,5.77
2018-04-14T08:57:01.819Z,5.10
2018-04-14T08:59:31.323Z,5.13
2018-04-14T09:02:00.892Z,4.40
2018-04-14T09:04:30.534Z,4.30
2018-04-14T09:07:00.099Z,4.50
2018-04-14T09:09:29.997Z,5.10
2018-04-14T09:11:59.503Z,4.83
2018-04-14T09:14:29.013Z,5.07
2018-04-14T09:17:55.665Z,5.20
2018-04-14T09:20:25.338Z,5.60
2018-04-14T09:22:54.834Z,5.57
2018-04-14T09:25:24.344Z,5.77
2018-04-14T09:27:53.843Z,5.77
2018-04-14T09:30:23.360Z,6.00
2018-04-14T09:32:52.862Z,5.50
2018-04-14T09:35:22.371Z,5.63
2018-04-14T09:37:51.872Z,5.10
2018-04-14T09:40:21.391Z,5.23
2018-04-14T09:42:50.951Z,5.47
2018-04-14T09:45:20.400Z,6.13
2018-04-14T09:47:49.887Z,6.30
2018-04-14T09:50:19.397Z,6.47
2018-04-14T09:52:48.902Z,5.63
2018-04-14T09:55:18.444Z,5.47
2018-04-14T09:57:47.952Z,5.47
2018-04-14T10:00:22.807Z,5.57
2018-04-14T10:02:52.492Z,5.87
2018-04-14T10:05:22.201Z,5.37
2018-04-14T10:07:51.708Z,5.80
2018-04-14T10:10:21.208Z,5.90
2018-04-14T10:12:50.911Z,5.80
2018-04-14T10:15:20.430Z,5.60
2018-04-14T10:17:49.934Z,5.70
2018-04-14T10:20:19.462Z,5.27
2018-04-14T10:22:49.357Z,4.63
2018-04-14T10:25:18.895Z,4.83
2018-04-14T10:27:48.171Z,4.50
2018-04-14T10:30:17.431Z,4.70
2018-04-14T10:32:46.944Z,5.07
2018-04-14T10:35:16.659Z,5.00
2018-04-14T10:37:46.217Z,4.90
2018-04-14T10:40:15.878Z,5.17
2018-04-14T10:42:45.377Z,5.20
2018-04-14T10:45:14.874Z,3.97
2018-04-14T10:47:44.373Z,3.37
2018-04-14T10:50:13.959Z,3.63
2018-04-14T10:52:43.474Z,3.40
2018-04-14T10:55:13.012Z,3.10
2018-04-14T10:57:42.714Z,3.13
2018-04-14T11:00:12.218Z,3.10
2018-04-14T11:02:41.768Z,2.47
2018-04-14T11:05:11.682Z,1.40
2018-04-14T11:07:41.589Z,1.10
2018-04-14T11:10:11.079Z,0.80
2018-04-14T11:12:40.577Z,1.03
2018-04-14T11:15:10.076Z,0.90
2018-04-14T11:17:39.579Z,0.90
2018-04-14T11:20:09.101Z,1.20
2018-04-14T11:22:38.609Z,1.00
2018-04-14T11:25:08.288Z,0.90
2018-04-14T11:27:37.823Z,0.90
2018-04-14T11:30:07.365Z,1.03
2018-04-14T11:32:36.860Z,0.60
2018-04-14T11:35:06.776Z,0.73
2018-04-14T11:37:36.716Z,0.80
2018-04-14T11:40:06.232Z,1.03
2018-04-14T11:42:35.737Z,0.90
2018-04-14T11:45:05.238Z,0.57
2018-04-14T11:47:34.752Z,1.00
2018-04-14T11:50:04.024Z,0.80
2018-04-14T11:52:33.538Z,0.77
2018-04-14T11:55:03.050Z,1.30
2018-04-14T11:57:32.548Z,1.03
2018-04-14T12:00:02.058Z,0.60
2018-04-14T12:02:31.250Z,0.70
2018-04-14T12:05:00.760Z,1.07
2018-04-14T12:07:30.034Z,0.80
2018-04-14T12:09:59.964Z,0.83
2018-04-14T12:12:28.992Z,0.70
2018-04-14T12:14:58.500Z,0.87
2018-04-14T12:17:28.010Z,0.60
2018-04-14T12:19:57.506Z,0.60
2018-04-14T12:22:27.006Z,0.60
2018-04-14T12:24:56.511Z,0.70
2018-04-14T12:27:26.018Z,0.70
2018-04-14T12:29:55.534Z,0.87
2018-04-14T12:32:25.046Z,0.60
2018-04-14T12:34:54.560Z,0.70
2018-04-14T12:37:24.062Z,0.50
2018-04-14T12:39:53.224Z,0.73
2018-04-14T12:42:22.737Z,0.70
2018-04-14T12:44:52.252Z,0.63
2018-04-14T12:47:21.763Z,0.70
2018-04-14T12:49:51.484Z,0.50
2018-04-14T12:52:20.978Z,0.70
2018-04-14T12:54:50.485Z,0.93
2018-04-14T12:57:19.082Z,0.70
2018-04-14T12:59:48.577Z,0.83
2018-04-14T13:02:17.879Z,1.20
2018-04-14T13:04:47.405Z,0.90
2018-04-14T13:07:17.154Z,1.13
2018-04-14T13:09:47.066Z,0.80
2018-04-14T13:12:16.989Z,1.00
2018-04-14T13:14:46.904Z,1.23
2018-04-14T13:17:16.830Z,0.87
2018-04-14T13:19:46.410Z,1.50
2018-04-14T13:22:15.918Z,0.97
2018-04-14T13:24:45.839Z,0.90
2018-04-14T13:27:15.543Z,1.57
2018-04-14T13:29:45.457Z,1.50
2018-04-14T13:32:15.367Z,1.53
2018-04-14T13:34:44.878Z,1.40
2018-04-14T13:37:14.781Z,1.60
2018-04-14T13:39:44.292Z,1.80
2018-04-14T13:42:14.235Z,2.00
2018-04-14T13:44:44.369Z,2.20
2018-04-14T13:47:13.927Z,1.87
2018-04-14T13:49:43.576Z,1.90
2018-04-14T13:52:13.094Z,1.90
2018-04-14T13:54:42.596Z,1.60
2018-04-14T13:57:12.128Z,1.60
2018-04-14T13:59:42.046Z,1.93
2018-04-14T14:02:11.564Z,1.50
2018-04-14T14:04:41.067Z,1.80
2018-04-14T14:07:10.586Z,1.50
2018-04-14T14:09:40.126Z,1.63
2018-04-14T14:12:09.642Z,2.30
2018-04-14T14:14:38.906Z,1.67
2018-04-14T14:17:08.410Z,2.17
2018-04-14T14:19:37.922Z,1.63
2018-04-14T14:22:07.439Z,1.77
2018-04-14T14:24:37.358Z,1.87
2018-04-14T14:27:07.272Z,1.93
2018-04-14T14:29:37.181Z,2.00
2018-04-14T14:32:07.095Z,1.70
2018-04-14T14:34:37.028Z,2.00
2018-04-14T14:37:06.018Z,2.27
2018-04-14T14:39:35.928Z,2.03
2018-04-14T14:42:05.858Z,1.77
2018-04-14T14:44:35.940Z,2.03
2018-04-14T14:47:05.451Z,1.83
2018-04-14T14:49:34.966Z,2.00
2018-04-14T14:52:04.875Z,1.90
2018-04-14T14:54:34.381Z,1.67
2018-04-14T14:57:04.295Z,1.87
2018-04-14T14:59:33.814Z,1.67
2018-04-14T15:02:03.713Z,1.27
2018-04-14T15:04:33.238Z,1.50
2018-04-14T15:07:02.947Z,1.50
2018-04-14T15:09:32.863Z,1.40
2018-04-14T15:12:02.764Z,1.47
2018-04-14T15:14:32.671Z,1.40
2018-04-14T15:17:02.206Z,1.20
2018-04-14T15:19:31.723Z,0.80
2018-04-14T15:22:01.233Z,0.90
2018-04-14T15:24:30.750Z,0.70
2018-04-14T15:27:00.264Z,1.10
2018-04-14T15:29:29.769Z,0.87
2018-04-14T15:31:59.290Z,1.00
2018-04-14T15:34:28.834Z,1.33
2018-04-14T15:36:58.939Z,1.30
2018-04-14T15:39:28.473Z,1.60
2018-04-14T15:41:57.985Z,1.13
2018-04-14T15:44:27.500Z,1.10
2018-04-14T15:46:57.053Z,0.90
2018-04-14T15:49:26.742Z,1.07
2018-04-14T15:51:56.264Z,0.87
2018-04-14T15:54:25.792Z,1.80
2018-04-14T15:56:55.716Z,1.27
2018-04-14T15:59:25.686Z,1.40
2018-04-14T16:01:55.740Z,1.90
2018-04-14T16:04:25.639Z,1.40
2018-04-14T16:06:55.340Z,1.37
2018-04-14T16:09:24.897Z,1.70
2018-04-14T16:11:54.588Z,1.93
2018-04-14T16:14:24.502Z,1.50
2018-04-14T16:16:54.431Z,1.63
2018-04-14T16:19:23.703Z,2.20
2018-04-14T16:21:52.728Z,1.80
2018-04-14T16:24:22.007Z,1.63
2018-04-14T16:26:51.923Z,2.20
2018-04-14T16:29:21.474Z,2.00
2018-04-14T16:31:50.982Z,2.20
2018-04-14T16:34:20.492Z,1.83
2018-04-14T16:36:50.030Z,2.00
2018-04-14T16:39:19.534Z,2.10
2018-04-14T16:41:49.069Z,2.00
2018-04-14T16:44:18.992Z,2.13
2018-04-14T16:46:48.896Z,2.03
2018-04-14T16:49:18.843Z,2.80
2018-04-14T16:51:48.528Z,1.87
2018-04-14T16:54:18.432Z,1.97
2018-04-14T16:56:47.934Z,2.43
2018-04-14T16:59:17.446Z,1.80
2018-04-14T17:01:47.378Z,1.80
2018-04-14T17:04:17.284Z,1.90
2018-04-14T17:06:47.199Z,1.77
2018-04-14T17:09:17.071Z,1.90
2018-04-14T17:11:46.579Z,2.00
2018-04-14T17:14:16.101Z,1.67
2018-04-14T17:16:45.599Z,1.83
2018-04-14T17:19:15.121Z,1.90
2018-04-14T17:21:44.626Z,1.93
2018-04-14T17:24:14.125Z,2.13
2018-04-14T17:26:43.620Z,2.20
2018-04-14T17:29:13.135Z,1.90
2018-04-14T17:31:43.384Z,2.07
2018-04-14T17:34:12.928Z,2.00
2018-04-14T17:36:42.452Z,1.90
2018-04-14T17:39:11.943Z,1.90
2018-04-14T17:41:41.125Z,1.87
2018-04-14T17:44:10.631Z,1.90
2018-04-14T17:46:40.135Z,1.87
2018-04-14T17:49:09.811Z,2.27
2018-04-14T17:51:39.317Z,2.20
2018-04-14T17:54:09.223Z,2.00
2018-04-14T17:56:38.747Z,2.30
2018-04-14T17:59:08.657Z,2.00
2018-04-14T18:01:38.207Z,1.60
2018-04-14T18:04:07.714Z,1.60
2018-04-14T18:06:37.243Z,1.80
2018-04-14T18:09:05.849Z,2.13
2018-04-14T18:11:35.019Z,2.17
2018-04-14T18:14:04.531Z,2.43
2018-04-14T18:16:34.057Z,1.87
2018-04-14T18:19:03.559Z,2.03
2018-04-14T18:21:33.067Z,2.00
2018-04-14T18:24:02.559Z,2.43
2018-04-14T18:26:32.072Z,1.70
2018-04-14T18:29:01.608Z,2.10
2018-04-14T18:31:31.513Z,1.87
2018-04-14T18:34:01.409Z,1.80
2018-04-14T18:36:30.908Z,2.27
2018-04-14T18:39:00.403Z,2.00
2018-04-14T18:41:29.908Z,1.90
2018-04-14T18:43:59.412Z,2.13
2018-04-14T18:46:28.691Z,1.77
2018-04-14T18:48:58.244Z,1.97
2018-04-14T18:51:27.750Z,1.80
2018-04-14T18:53:57.238Z,1.90
2018-04-14T18:56:26.752Z,1.63
2018-04-14T18:58:56.246Z,1.73
2018-04-14T19:01:25.744Z,1.50
2018-04-14T19:03:55.265Z,1.70
2018-04-14T19:06:24.775Z,1.80
2018-04-14T19:08:54.286Z,1.70
2018-04-14T19:11:23.800Z,1.80
2018-04-14T19:13:53.316Z,1.83
2018-04-14T19:16:23.212Z,1.67
2018-04-14T19:18:52.723Z,1.90
2018-04-14T19:21:22.222Z,1.93
2018-04-14T19:23:51.913Z,1.70
2018-04-14T19:26:21.621Z,1.70
2018-04-14T19:28:51.176Z,1.57
2018-04-14T19:31:21.057Z,1.30
2018-04-14T19:33:50.749Z,1.43
2018-04-14T19:36:20.269Z,1.83
2018-04-14T19:38:49.840Z,1.93
2018-04-14T19:41:19.373Z,2.20
2018-04-14T19:43:48.884Z,2.40
2018-04-14T19:46:18.373Z,3.23
2018-04-14T19:48:47.878Z,2.90
2018-04-14T19:51:17.451Z,2.93
2018-04-14T19:53:46.977Z,2.60
2018-04-14T19:56:16.510Z,2.40
2018-04-14T19:58:46.013Z,2.60
2018-04-14T20:01:15.552Z,2.40
2018-04-14T20:03:45.474Z,2.60
2018-04-14T20:06:15.196Z,2.50
2018-04-14T20:08:45.093Z,2.27
2018-04-14T20:11:15.032Z,1.63
2018-04-14T20:13:44.917Z,1.67
2018-04-14T20:16:14.417Z,1.40
2018-04-14T20:18:43.943Z,1.43
2018-04-14T20:21:13.834Z,2.03
2018-04-14T20:23:43.341Z,1.90
2018-04-14T20:26:12.841Z,2.30
2018-04-14T20:28:42.354Z,1.80
2018-04-14T20:31:11.908Z,1.90
2018-04-14T20:33:41.601Z,2.47
2018-04-14T20:36:11.510Z,2.00
2018-04-14T20:38:41.404Z,2.07
2018-04-14T20:41:10.911Z,2.23
2018-04-14T20:43:40.605Z,2.00
2018-04-14T20:46:10.110Z,2.00
2018-04-14T20:48:39.476Z,1.90
2018-04-14T20:51:08.984Z,2.90
2018-04-14T20:53:38.474Z,3.47
2018-04-14T20:56:07.745Z,2.90
2018-04-14T20:58:37.646Z,2.63
2018-04-14T21:01:07.163Z,2.40
2018-04-14T21:03:36.655Z,3.17
2018-04-14T21:06:06.147Z,2.77
2018-04-14T21:08:35.656Z,2.33
2018-04-14T21:11:05.163Z,2.40
2018-04-14T21:13:34.677Z,2.43
2018-04-14T21:16:04.190Z,2.60
2018-04-14T21:18:33.693Z,2.50
2018-04-14T21:21:03.190Z,2.10
2018-04-14T21:23:32.700Z,2.33
2018-04-14T21:26:02.219Z,2.90
2018-04-14T21:28:31.725Z,2.70
2018-04-14T21:31:01.629Z,2.10
2018-04-14T21:33:31.128Z,2.60
2018-04-14T21:36:00.639Z,2.77
2018-04-14T21:38:30.161Z,2.60
2018-04-14T21:40:59.664Z,2.57
2018-04-14T21:43:29.177Z,2.63
2018-04-14T21:45:59.057Z,2.83
2018-04-14T21:48:28.562Z,2.57
2018-04-14T21:50:57.859Z,2.60
2018-04-14T21:53:27.360Z,2.37
2018-04-14T21:55:56.853Z,2.70
2018-04-14T21:58:26.359Z,2.20
2018-04-14T22:00:55.863Z,2.50
2018-04-14T22:03:25.375Z,2.50
2018-04-14T22:05:54.906Z,2.20
2018-04-14T22:08:24.409Z,2.60
2018-04-14T22:10:53.913Z,2.50
2018-04-14T22:13:23.446Z,2.27
2018-04-14T22:15:53.366Z,2.30
2018-04-14T22:18:23.280Z,2.90
2018-04-14T22:20:52.954Z,2.43
2018-04-14T22:23:22.640Z,2.63
2018-04-14T22:25:52.151Z,3.67
2018-04-14T22:28:21.654Z,3.50
2018-04-14T22:30:51.388Z,3.17
2018-04-14T22:33:20.923Z,2.47
2018-04-14T22:35:50.438Z,2.40
2018-04-14T22:38:20.380Z,2.70
2018-04-14T22:40:49.884Z,2.90
2018-04-14T22:43:19.050Z,2.80
2018-04-14T22:45:48.978Z,2.83
2018-04-14T22:48:18.866Z,2.70
2018-04-14T22:50:48.380Z,2.60
2018-04-14T22:53:18.280Z,2.60
2018-04-14T22:55:47.780Z,2.60
2018-04-14T22:58:17.282Z,3.30
2018-04-14T23:00:46.790Z,3.03
2018-04-14T23:03:16.326Z,3.43
2018-04-14T23:05:46.230Z,3.40
2018-04-14T23:08:15.728Z,3.40
2018-04-14T23:10:45.249Z,3.07
2018-04-14T23:13:15.160Z,2.83
2018-04-14T23:15:45.050Z,3.30
2018-04-14T23:18:14.550Z,3.27
2018-04-14T23:20:44.062Z,3.00
2018-04-14T23:23:13.600Z,2.97
2018-04-14T23:25:43.267Z,2.80
2018-04-14T23:28:12.793Z,2.70
2018-04-14T23:30:42.300Z,2.57
2018-04-14T23:33:11.464Z,2.97
2018-04-14T23:35:40.982Z,2.73
2018-04-14T23:38:10.484Z,3.13
2018-04-14T23:40:39.973Z,2.87
2018-04-14T23:43:09.509Z,2.53
2018-04-14T23:45:39.010Z,3.00
2018-04-14T23:48:08.547Z,2.93
2018-04-14T23:50:38.442Z,2.70
2018-04-14T23:53:07.941Z,2.57
2018-04-14T23:55:37.473Z,3.00
2018-04-14T23:58:07.365Z,3.07
